Misión y Visión

La misión es proporcionar información fiable a la navegación aérea, contribuyendo a la seguridad, regularidad y eficiencia de la Navegación Aérea Internacional

La visión es contribuir sustancialmente al desarrollo de conocimientos y a la utilización de la meteorología aeronáutica a nivel nacional e internacional, mediante la innovación y la coparticipación con sectores sociales y productivos de la sociedad.

 
  Inicio
  Metar
  Taf
  Wintemp
  SIGMET
  Avisos
  Pronósticos
  Carpeta Meteorologica
  Imágenes Satelitales
  Climatología Aeronáutica
   
  ¿Quienes Somos?
  Contacto
  Eventos



DIRECCIONES PARA INFORMES NACIONALES E INTERNACIONALES
(Metar /Speci - TAF)



http://adds.aviationweather.gov/tafs/index.php

http://www.ogimet.com/metars.phtml



PRONÓSTICOS DE AERÓDROMO

Cuando sea necesario, el encabezamiento abreviado puede incluir un cuarto grupo consistente en tres letras para identificar los boletines demorados (RRA), corregidos(CCA) o enmendados (AAA). Los boletines adicionales demorados, corregidos o enmendados deben identificarse con las letras RRB, RRC, etc.; CCB, CCC,etc.;AAB, AAC,etc.



ESTACIONES DESCRIPCION
MPTO (M) 230100Z 27005KT 8000 -RA SCT003 SCT016 BKN080 26/25 Q1009 NOSIG RMK ST ALQDS=  
MPBO (M)  
MPCH (M) 231100Z 00000KT 9999 FEW020 //// Q1010=  
MPSA (M)  
MPCE (M)  
MPPN (M)  
MPSM (M)  
MPJE (M)  
MPPA (M)  
MPMG (M) 231100Z VRB02KT 9999 SCT016 BKN090 25/25 Q1009 RWY DAMP NOSIG=  
MPDA (M) 231100Z 00000KT(E) 9999 FEW003 FEW018 SCT080 //// Q1009 RMK ST NW-NE-E=  
MPVR (M)  
MPWN (M)  
MPOA (M)  
MPMF (M)  
MPEJ (M)  


CLIMATICAS

MPTO

22-10-2017

 

PCPN (mm)

T° MAX

T° MIN

VIENTO MAX (KT)

HORA

VIENTO PREDOM (KT)

3.0

      28.8

24.5

18007KT

1900Z

S03KT

CLIMATICAS

MPMG

19-10-2017

PCPN (mm)

T° MAX T° MIN VIENTO MAX (KT) HORA VIENTO PREDOM (KT)
3.0 30.4 25.6

17010KT

1800Z

  VRB02KT